Time;durP1;ratioP1;P1;durP2;ratioP2;P2;SDS_P1;SDS_P2;PMS_P1;PMS_P2;Temp;Humidity;BMP_temperature;BMP_pressure;BME280_temperature;BME280_humidity;BME280_pressure;Samples;Min_cycle;Max_cycle;Signal;HPM_P1;HPM_P2
2021/08/04 00:00:24;;;;;;;3.73;2.63;;;;;;;18.11;40.46;100910.09;3565793;40;20065;-67
2021/08/04 00:02:52;;;;;;;4.45;2.70;;;;;;;18.12;40.33;100912.66;3557729;40;20283;-68
2021/08/04 00:05:21;;;;;;;4.35;2.75;;;;;;;18.10;40.23;100909.22;3571355;40;20052;-68
2021/08/04 00:07:49;;;;;;;5.93;2.72;;;;;;;18.09;40.77;100913.03;3559595;40;20033;-68
2021/08/04 00:10:19;;;;;;;5.15;2.90;;;;;;;18.09;40.50;100915.78;3565649;40;20053;-68
2021/08/04 00:12:47;;;;;;;3.78;2.38;;;;;;;18.06;40.23;100910.59;3567955;40;20049;-68
2021/08/04 00:15:17;;;;;;;4.20;2.97;;;;;;;18.07;40.38;100915.09;3568227;40;20478;-68
2021/08/04 00:17:46;;;;;;;4.07;2.53;;;;;;;18.05;40.31;100914.41;3562664;40;20046;-68
2021/08/04 00:20:15;;;;;;;3.92;2.63;;;;;;;18.02;40.62;100909.22;3567551;40;20046;-67
2021/08/04 00:22:43;;;;;;;5.15;2.50;;;;;;;18.02;40.10;100898.16;3567871;40;20563;-68
2021/08/04 00:25:12;;;;;;;4.13;2.40;;;;;;;17.98;40.19;100900.41;3569133;40;20455;-68
2021/08/04 00:27:42;;;;;;;4.63;2.58;;;;;;;18.00;40.80;100903.00;3563987;40;20045;-68
2021/08/04 00:30:11;;;;;;;4.80;2.60;;;;;;;17.97;40.08;100893.13;3568098;40;20065;-67
2021/08/04 00:32:39;;;;;;;4.40;2.55;;;;;;;17.96;40.73;100902.47;3567343;40;20419;-68
2021/08/04 00:35:09;;;;;;;5.25;2.83;;;;;;;17.94;40.68;100893.53;3567309;40;20061;-68
2021/08/04 00:37:38;;;;;;;3.78;2.63;;;;;;;17.93;40.54;100900.09;3566413;40;20050;-67
2021/08/04 00:40:07;;;;;;;4.88;2.70;;;;;;;17.94;40.59;100890.75;3567356;40;20057;-67
2021/08/04 00:42:36;;;;;;;4.63;2.70;;;;;;;17.92;40.44;100890.06;3564374;40;20052;-68
2021/08/04 00:45:07;;;;;;;4.03;2.63;;;;;;;17.93;40.32;100891.78;3563905;40;20382;-68
2021/08/04 00:47:37;;;;;;;4.40;2.60;;;;;;;17.89;40.23;100890.41;3574982;40;20059;-68
2021/08/04 00:50:07;;;;;;;4.10;2.50;;;;;;;17.91;40.47;100890.22;3576454;40;20219;-68
2021/08/04 00:52:35;;;;;;;4.10;2.58;;;;;;;17.88;40.26;100893.34;3577734;40;20044;-67
2021/08/04 00:55:03;;;;;;;4.25;2.75;;;;;;;17.89;40.13;100895.06;3563875;40;20053;-68
2021/08/04 00:57:31;;;;;;;3.85;2.55;;;;;;;17.87;40.43;100891.63;3579512;40;20049;-68
2021/08/04 00:59:59;;;;;;;3.40;2.28;;;;;;;17.85;40.29;100891.81;3575706;40;20053;-67
2021/08/04 01:02:37;;;;;;;4.88;2.40;;;;;;;17.88;40.71;100898.88;3575547;40;20053;-68
2021/08/04 01:05:10;;;;;;;4.63;2.53;;;;;;;17.85;40.58;100908.44;3566435;40;20052;-68
2021/08/04 01:07:42;;;;;;;3.92;2.65;;;;;;;17.82;40.65;100897.72;3555536;40;20034;-68
2021/08/04 01:10:16;;;;;;;3.90;2.63;;;;;;;17.81;40.35;100895.13;3565126;40;20054;-67
2021/08/04 01:12:47;;;;;;;4.40;2.53;;;;;;;17.81;40.79;100906.19;3556494;40;20049;-68
2021/08/04 01:15:15;;;;;;;3.63;2.60;;;;;;;17.77;40.98;100902.06;3554104;40;20049;-68
2021/08/04 01:17:48;;;;;;;5.07;2.63;;;;;;;17.77;40.44;100900.16;3554241;40;20050;-68
2021/08/04 01:20:21;;;;;;;4.10;2.70;;;;;;;17.75;40.87;100899.47;3569048;23;20046;-67
2021/08/04 01:22:58;;;;;;;5.07;2.83;;;;;;;17.73;40.60;100900.69;3556215;40;20124;-70
2021/08/04 01:25:31;;;;;;;5.13;2.80;;;;;;;17.70;40.78;100905.50;3557278;40;20030;-69
2021/08/04 01:31:07;;;;;;;4.18;2.65;;;;;;;17.64;40.93;100906.25;3604443;39;20420;-68
2021/08/04 01:33:40;;;;;;;3.67;2.60;;;;;;;17.63;40.63;100904.50;3590953;39;20134;-68
2021/08/04 01:36:09;;;;;;;;;;;;;;;17.31;41.27;100904.59;3584497;40;20122;-66
2021/08/04 01:38:38;;;;;;;4.10;2.30;;;;;;;17.55;40.35;100903.66;3588296;39;19940;-68
2021/08/04 01:41:08;;;;;;;3.70;2.17;;;;;;;17.55;40.72;100903.66;3592063;39;20041;-66
2021/08/04 01:43:38;;;;;;;4.65;2.45;;;;;;;17.54;40.79;100907.47;3592973;39;20051;-69
2021/08/04 01:46:09;;;;;;;3.78;2.78;;;;;;;17.53;40.79;100903.88;3601973;39;20029;-69
2021/08/04 01:48:39;;;;;;;6.18;2.63;;;;;;;17.50;40.50;100906.97;3593129;39;20422;-68
2021/08/04 01:51:09;;;;;;;3.45;2.20;;;;;;;17.49;40.92;100912.69;3593783;39;20074;-69
2021/08/04 01:53:38;;;;;;;5.10;2.72;;;;;;;17.45;40.73;100901.13;3593067;39;20055;-67
2021/08/04 01:56:07;;;;;;;4.28;2.70;;;;;;;17.43;40.54;100899.56;3593574;39;20032;-68
2021/08/04 01:58:35;;;;;;;4.43;2.90;;;;;;;17.41;40.68;100901.63;3592400;39;20343;-67
2021/08/04 02:01:03;;;;;;;5.03;2.88;;;;;;;17.38;40.78;100902.84;3593898;39;20110;-67
2021/08/04 02:03:32;;;;;;;4.78;2.90;;;;;;;17.39;41.21;100898.16;3593959;39;20077;-66
2021/08/04 02:06:05;;;;;;;4.07;2.60;;;;;;;17.37;41.26;100898.38;3594937;39;20095;-69
2021/08/04 02:08:40;;;;;;;4.18;2.38;;;;;;;17.33;40.74;100891.44;3594295;39;20040;-67
2021/08/04 02:11:14;;;;;;;3.83;2.60;;;;;;;17.31;40.65;100894.38;3593195;39;20048;-67
2021/08/04 02:13:48;;;;;;;4.28;2.33;;;;;;;17.31;41.22;100893.53;3601105;39;20052;-67
2021/08/04 02:16:31;;;;;;;5.22;2.72;;;;;;;17.29;41.45;100890.06;3602316;39;20108;-69
2021/08/04 02:19:13;;;;;;;4.82;2.50;;;;;;;17.25;40.75;100883.13;3584483;39;20051;-68
2021/08/04 02:21:44;;;;;;;4.72;2.78;;;;;;;17.25;41.06;100888.66;3594737;39;20039;-68
2021/08/04 02:24:16;;;;;;;4.50;2.63;;;;;;;17.22;40.77;100880.72;3592736;39;20052;-67
2021/08/04 02:26:46;;;;;;;4.10;2.80;;;;;;;17.19;40.96;100892.16;3594610;39;20036;-68
2021/08/04 02:29:15;;;;;;;4.00;2.95;;;;;;;17.18;40.92;100888.50;3593807;39;20049;-68
2021/08/04 02:31:43;;;;;;;4.13;2.65;;;;;;;17.16;40.82;100882.28;3593362;39;20032;-68
2021/08/04 02:34:14;;;;;;;4.50;2.83;;;;;;;17.15;40.92;100886.09;3592949;39;20080;-68
2021/08/04 02:36:43;;;;;;;4.88;2.67;;;;;;;17.11;41.10;100872.81;3601734;39;20048;-66
2021/08/04 02:39:10;;;;;;;4.93;3.13;;;;;;;17.09;40.99;100881.25;3592728;39;20056;-66
2021/08/04 02:41:39;;;;;;;4.85;2.70;;;;;;;17.07;41.04;100872.28;3588225;39;20596;-66
2021/08/04 02:44:06;;;;;;;4.05;2.63;;;;;;;17.05;41.03;100873.47;3585886;39;20110;-67
2021/08/04 02:46:35;;;;;;;5.57;2.90;;;;;;;17.03;40.85;100872.81;3587441;40;20075;-66
2021/08/04 02:49:04;;;;;;;3.55;2.47;;;;;;;17.01;41.28;100869.34;3586702;40;20033;-69
2021/08/04 02:51:34;;;;;;;4.55;2.80;;;;;;;17.00;41.59;100867.63;3595548;40;20040;-69
2021/08/04 02:54:02;;;;;;;4.60;2.83;;;;;;;16.94;41.14;100861.78;3586252;40;20401;-68
2021/08/04 02:56:30;;;;;;;4.18;2.50;;;;;;;16.93;41.06;100868.31;3587317;40;20299;-67
2021/08/04 02:58:58;;;;;;;4.38;2.72;;;;;;;16.92;41.32;100865.72;3586582;39;20060;-69
2021/08/04 03:01:26;;;;;;;3.88;2.60;;;;;;;16.90;40.99;100876.09;3587671;40;20426;-68
2021/08/04 03:03:54;;;;;;;4.32;2.50;;;;;;;16.87;41.12;100882.84;3585892;39;20550;-70
2021/08/04 03:06:22;;;;;;;4.60;2.80;;;;;;;16.86;41.31;100883.88;3587286;40;20029;-69
2021/08/04 03:08:51;;;;;;;6.20;2.65;;;;;;;16.86;41.04;100883.88;3586668;39;20049;-67
2021/08/04 03:11:19;;;;;;;5.25;2.75;;;;;;;16.83;41.19;100877.81;3594560;39;20035;-68
2021/08/04 03:13:47;;;;;;;4.18;2.50;;;;;;;16.81;41.31;100879.88;3585651;39;20044;-68
2021/08/04 03:16:15;;;;;;;4.05;2.58;;;;;;;16.79;41.55;100876.47;3586888;40;20036;-69
2021/08/04 03:18:43;;;;;;;5.65;2.60;;;;;;;16.76;41.55;100883.19;3594237;39;20045;-68
2021/08/04 03:21:11;;;;;;;4.90;2.72;;;;;;;16.73;41.26;100885.41;3587103;40;20029;-68
2021/08/04 03:23:39;;;;;;;4.20;2.78;;;;;;;16.71;41.46;100884.75;3586698;39;20055;-67
2021/08/04 03:26:08;;;;;;;3.85;2.55;;;;;;;16.71;41.09;100887.50;3587113;40;20039;-67
2021/08/04 03:28:36;;;;;;;4.50;2.80;;;;;;;16.67;41.13;100889.72;3586339;39;20044;-68
2021/08/04 03:31:04;;;;;;;4.13;2.60;;;;;;;16.66;41.10;100889.91;3587082;40;20029;-69
2021/08/04 03:33:32;;;;;;;4.57;2.90;;;;;;;16.64;41.71;100886.44;3586508;39;20084;-69
2021/08/04 03:36:00;;;;;;;4.00;2.63;;;;;;;16.63;41.31;100887.50;3586989;40;20039;-68
2021/08/04 03:38:28;;;;;;;5.85;2.28;;;;;;;16.60;41.54;100891.47;3586262;39;20085;-70
2021/08/04 03:40:56;;;;;;;4.93;2.70;;;;;;;16.59;41.62;100894.38;3587202;40;20308;-69
2021/08/04 03:43:25;;;;;;;4.63;2.80;;;;;;;16.58;41.27;100893.50;3586548;39;20037;-69
2021/08/04 03:45:53;;;;;;;4.15;2.55;;;;;;;16.54;41.58;100895.78;3587228;40;20035;-69
2021/08/04 03:48:21;;;;;;;3.92;2.70;;;;;;;16.52;41.10;100897.84;3586733;39;20137;-67
2021/08/04 03:50:49;;;;;;;7.25;3.05;;;;;;;16.51;41.43;100900.75;3586649;40;20052;-67
2021/08/04 03:53:17;;;;;;;4.15;2.83;;;;;;;16.49;41.42;100900.06;3586148;39;20537;-69
2021/08/04 03:55:45;;;;;;;3.75;2.88;;;;;;;16.46;41.91;100901.25;3586615;40;20028;-67
2021/08/04 03:58:13;;;;;;;3.63;2.60;;;;;;;16.43;41.81;100893.28;3586101;39;20052;-69
2021/08/04 04:00:43;;;;;;;3.83;2.60;;;;;;;16.44;41.88;100899.69;3586603;40;20039;-69
2021/08/04 04:03:11;;;;;;;4.53;2.70;;;;;;;16.38;42.21;100895.72;3586172;39;20056;-68
2021/08/04 04:05:39;;;;;;;4.97;2.47;;;;;;;16.36;42.08;100894.16;3586839;40;20028;-69
2021/08/04 04:08:07;;;;;;;4.45;2.90;;;;;;;16.32;41.49;100899.13;3585876;39;20045;-67
2021/08/04 04:10:35;;;;;;;3.88;2.78;;;;;;;16.30;41.77;100895.66;3585297;40;20073;-68
2021/08/04 04:13:03;;;;;;;5.70;2.70;;;;;;;16.28;42.14;100902.41;3586046;39;20151;-70
2021/08/04 04:15:31;;;;;;;4.65;2.88;;;;;;;16.26;42.33;100907.22;3586951;40;20406;-70
2021/08/04 04:18:00;;;;;;;4.28;2.60;;;;;;;16.26;41.85;100907.22;3586323;40;20045;-68
2021/08/04 04:20:28;;;;;;;4.40;2.70;;;;;;;16.23;42.17;100915.84;3586796;40;20303;-70
2021/08/04 04:22:55;;;;;;;4.60;2.88;;;;;;;16.20;42.39;100911.53;3585598;39;20048;-70
2021/08/04 04:25:23;;;;;;;4.53;3.17;;;;;;;16.18;42.58;100925.50;3586999;40;20029;-70
2021/08/04 04:27:51;;;;;;;4.50;2.95;;;;;;;16.17;42.12;100923.75;3585927;39;20044;-70
2021/08/04 04:30:19;;;;;;;4.15;2.85;;;;;;;16.16;42.52;100935.81;3586609;40;20037;-68
2021/08/04 04:32:47;;;;;;;4.63;3.00;;;;;;;16.14;42.78;100932.38;3585473;39;20127;-68
2021/08/04 04:35:16;;;;;;;5.28;3.10;;;;;;;16.16;42.36;100937.72;3586263;40;20043;-67
2021/08/04 04:37:44;;;;;;;4.95;3.22;;;;;;;16.13;42.44;100938.94;3586083;39;20048;-69
2021/08/04 04:40:12;;;;;;;6.32;3.50;;;;;;;16.13;42.36;100933.44;3586728;40;20063;-69
2021/08/04 04:42:40;;;;;;;7.25;3.80;;;;;;;16.13;43.07;100938.94;3585913;39;20048;-69
2021/08/04 04:45:09;;;;;;;4.97;3.70;;;;;;;16.12;42.70;100948.25;3586559;40;20073;-69
2021/08/04 04:47:37;;;;;;;6.13;3.60;;;;;;;16.11;42.79;100945.66;3586067;39;20323;-67
2021/08/04 04:50:06;;;;;;;4.55;3.47;;;;;;;16.11;43.43;100953.94;3586031;40;20036;-69
2021/08/04 04:52:41;;;;;;;5.85;3.30;;;;;;;16.12;43.35;100947.38;3586228;40;20045;-69
2021/08/04 04:55:11;;;;;;;4.90;3.75;;;;;;;16.07;43.39;100950.63;3586254;39;20037;-69
2021/08/04 04:57:39;;;;;;;4.85;3.47;;;;;;;16.07;43.61;100952.50;3585982;40;20035;-68
2021/08/04 05:00:10;;;;;;;4.78;3.20;;;;;;;16.08;43.51;100945.97;3586770;40;20292;-69
2021/08/04 05:02:38;;;;;;;4.85;3.33;;;;;;;16.07;43.16;100949.75;3585592;39;20040;-68
2021/08/04 05:05:09;;;;;;;5.60;3.97;;;;;;;16.08;43.89;100957.00;3585223;40;20288;-70
2021/08/04 05:07:37;;;;;;;6.80;4.40;;;;;;;16.05;44.04;100961.00;3585862;39;20052;-70
2021/08/04 05:10:07;;;;;;;4.97;3.72;;;;;;;16.08;43.60;100954.25;3585810;40;20297;-67
2021/08/04 05:12:35;;;;;;;5.43;3.83;;;;;;;16.05;43.92;100951.84;3585330;39;20045;-68
2021/08/04 05:15:03;;;;;;;5.80;3.65;;;;;;;16.07;43.65;100956.16;3586086;40;20036;-68
2021/08/04 05:17:31;;;;;;;5.28;4.32;;;;;;;16.09;43.37;100959.59;3585549;39;20095;-68
2021/08/04 05:19:59;;;;;;;6.95;4.40;;;;;;;16.10;44.12;100954.97;3586299;40;20024;-68
2021/08/04 05:22:26;;;;;;;6.30;4.43;;;;;;;16.12;44.32;100948.25;3585377;39;20047;-68
2021/08/04 05:24:54;;;;;;;6.00;4.05;;;;;;;16.14;43.99;100961.84;3586095;40;20338;-68
2021/08/04 05:27:23;;;;;;;6.53;4.38;;;;;;;16.17;44.22;100965.16;3585016;39;20055;-67
2021/08/04 05:29:51;;;;;;;6.45;4.50;;;;;;;16.18;44.12;100958.63;3586487;40;20052;-71
2021/08/04 05:32:19;;;;;;;5.82;4.07;;;;;;;16.19;44.26;100963.09;3585403;39;20047;-68
2021/08/04 05:34:47;;;;;;;5.45;4.25;;;;;;;16.19;44.73;100952.06;3585791;40;20035;-68
2021/08/04 05:37:15;;;;;;;5.70;4.18;;;;;;;16.21;44.69;100954.66;3585966;39;20036;-69
2021/08/04 05:39:43;;;;;;;6.30;4.55;;;;;;;16.23;44.33;100947.06;3585753;40;20029;-70
2021/08/04 05:42:11;;;;;;;6.90;5.15;;;;;;;16.23;45.02;100960.00;3584871;39;20037;-68
2021/08/04 05:44:41;;;;;;;6.38;4.70;;;;;;;16.26;45.09;100959.66;3585741;40;20389;-67
2021/08/04 05:47:09;;;;;;;6.50;4.32;;;;;;;16.25;45.03;100952.41;3585503;39;20260;-69
2021/08/04 05:49:37;;;;;;;5.60;4.13;;;;;;;16.26;45.05;100951.38;3585486;40;20028;-69
2021/08/04 05:52:05;;;;;;;6.00;4.40;;;;;;;16.28;44.96;100963.13;3585124;39;20036;-68
2021/08/04 05:54:33;;;;;;;6.65;4.13;;;;;;;16.28;44.86;100952.09;3586097;40;20040;-70
2021/08/04 05:57:01;;;;;;;6.35;4.18;;;;;;;16.28;44.63;100961.25;3585235;39;20104;-69
2021/08/04 05:59:29;;;;;;;6.22;4.00;;;;;;;16.29;44.50;100956.59;3586134;40;20324;-69
2021/08/04 06:01:58;;;;;;;5.13;3.67;;;;;;;16.32;44.39;100962.63;3585602;39;20037;-68
2021/08/04 06:04:26;;;;;;;4.95;3.58;;;;;;;16.32;44.98;100964.50;3585951;40;20181;-66
2021/08/04 06:06:54;;;;;;;5.85;4.20;;;;;;;16.34;44.47;100976.25;3586351;40;20110;-66
2021/08/04 06:09:22;;;;;;;5.93;4.13;;;;;;;16.36;44.65;100969.56;3585480;40;20049;-68
2021/08/04 06:11:50;;;;;;;5.40;3.83;;;;;;;16.37;44.94;100973.19;3585796;40;20463;-65
2021/08/04 06:14:18;;;;;;;7.13;4.32;;;;;;;16.40;44.53;100975.59;3585178;39;20053;-68
2021/08/04 06:16:46;;;;;;;6.43;4.00;;;;;;;16.42;44.62;100985.44;3585478;40;20075;-67
2021/08/04 06:19:15;;;;;;;7.80;4.32;;;;;;;16.46;44.60;100975.81;3587191;39;20068;-68
2021/08/04 06:21:43;;;;;;;5.85;4.10;;;;;;;16.46;44.67;100975.81;3586947;40;20033;-68
2021/08/04 06:24:11;;;;;;;6.78;4.97;;;;;;;16.50;45.08;100979.09;3587277;39;20279;-67
2021/08/04 06:26:39;;;;;;;7.18;4.53;;;;;;;16.51;44.89;100984.47;3586926;40;20057;-64
2021/08/04 06:29:06;;;;;;;7.32;4.93;;;;;;;16.54;45.18;100986.03;3586475;39;20049;-66
2021/08/04 06:31:35;;;;;;;6.20;4.53;;;;;;;16.56;44.96;100982.06;3586946;40;20048;-68
2021/08/04 06:34:03;;;;;;;6.07;4.43;;;;;;;16.58;44.67;100989.31;3586646;39;20163;-67
2021/08/04 06:36:32;;;;;;;6.88;4.57;;;;;;;16.63;44.86;100995.22;3587207;40;20343;-66
2021/08/04 06:39:00;;;;;;;6.18;4.55;;;;;;;16.63;45.19;100992.44;3586105;39;20048;-65
2021/08/04 06:41:28;;;;;;;6.72;4.60;;;;;;;16.64;45.19;100988.63;3587204;40;20033;-65
2021/08/04 06:43:56;;;;;;;6.70;4.70;;;;;;;16.66;44.80;100989.34;3586731;39;20048;-67
2021/08/04 06:46:24;;;;;;;6.68;4.88;;;;;;;16.69;45.46;100994.53;3587060;40;20566;-67
2021/08/04 06:48:52;;;;;;;6.50;4.80;;;;;;;16.72;45.33;100995.03;3586409;39;20331;-66
2021/08/04 06:51:20;;;;;;;7.75;5.55;;;;;;;16.75;44.94;100991.94;3587168;40;20039;-67
2021/08/04 06:53:50;;;;;;;6.30;4.47;;;;;;;16.79;45.08;100993.34;3586691;39;20396;-65
2021/08/04 06:56:18;;;;;;;7.28;5.72;;;;;;;16.80;45.30;100995.06;3587128;40;20088;-67
2021/08/04 06:58:46;;;;;;;7.50;5.65;;;;;;;16.83;44.86;100994.72;3586918;39;20112;-64
2021/08/04 07:01:14;;;;;;;8.48;5.32;;;;;;;16.87;45.01;100992.50;3587891;40;20033;-65
2021/08/04 07:03:42;;;;;;;8.77;6.55;;;;;;;16.90;45.16;100998.53;3587333;39;20417;-67
2021/08/04 07:06:10;;;;;;;10.05;6.40;;;;;;;16.93;45.54;100992.69;3587427;40;20024;-65
2021/08/04 07:08:39;;;;;;;8.02;6.22;;;;;;;16.97;45.11;100995.94;3586977;39;20060;-67
2021/08/04 07:11:09;;;;;;;8.73;5.57;;;;;;;17.02;44.92;100996.31;3587779;40;20119;-72
2021/08/04 07:13:37;;;;;;;6.45;5.10;;;;;;;17.03;44.90;100991.66;3587176;39;20126;-66
2021/08/04 07:16:05;;;;;;;7.55;6.30;;;;;;;17.07;45.39;100993.88;3587631;40;20044;-65
2021/08/04 07:18:33;;;;;;;8.75;6.88;;;;;;;17.11;45.49;100999.94;3587228;39;20059;-65
2021/08/04 07:21:01;;;;;;;7.43;6.07;;;;;;;17.12;44.92;100993.38;3586876;40;20455;-67
2021/08/04 07:23:29;;;;;;;8.85;6.75;;;;;;;17.15;45.03;100998.56;3577818;39;20702;-67
2021/08/04 07:25:57;;;;;;;8.10;6.13;;;;;;;17.17;45.16;100989.06;3581200;40;20601;-67
2021/08/04 07:28:27;;;;;;;9.50;6.78;;;;;;;17.21;45.55;100992.31;3576683;39;20337;-66
2021/08/04 07:30:55;;;;;;;9.00;6.63;;;;;;;17.21;45.67;100986.81;3577894;40;20482;-68
2021/08/04 07:33:22;;;;;;;9.05;7.05;;;;;;;17.23;45.24;100982.84;3579412;39;20044;-67
2021/08/04 07:35:50;;;;;;;9.55;6.93;;;;;;;17.26;46.09;100982.50;3579658;40;20367;-67
2021/08/04 07:38:18;;;;;;;9.30;6.60;;;;;;;17.31;45.89;100990.28;3578722;39;20036;-68
2021/08/04 07:40:46;;;;;;;9.05;6.60;;;;;;;17.38;46.41;100985.78;3578138;40;20339;-68
2021/08/04 07:43:14;;;;;;;9.35;7.22;;;;;;;17.48;46.17;100996.69;3580166;39;20053;-69
2021/08/04 07:45:43;;;;;;;9.07;7.07;;;;;;;17.58;46.68;101001.00;3578047;40;20049;-68
2021/08/04 07:48:11;;;;;;;8.70;6.43;;;;;;;17.67;46.32;100999.94;3577299;39;20029;-68
2021/08/04 07:50:39;;;;;;;8.85;7.03;;;;;;;17.80;46.23;100993.88;3583287;40;20050;-68
2021/08/04 07:53:07;;;;;;;8.43;6.65;;;;;;;17.93;46.26;100998.88;3578424;39;20032;-68
2021/08/04 07:55:38;;;;;;;8.50;6.45;;;;;;;18.08;46.40;100997.13;3579345;39;20062;-68
2021/08/04 07:58:06;;;;;;;7.63;6.05;;;;;;;18.22;46.17;100992.72;3573862;39;20046;-69
2021/08/04 08:00:34;;;;;;;9.45;7.00;;;;;;;18.39;46.30;100986.06;3570866;40;20591;-68
2021/08/04 08:03:03;;;;;;;7.97;6.75;;;;;;;18.56;46.29;100984.94;3570824;40;20523;-65
2021/08/04 08:05:31;;;;;;;8.85;6.85;;;;;;;18.71;46.29;100982.25;3569480;40;20044;-65
2021/08/04 08:08:04;;;;;;;10.07;7.10;;;;;;;18.86;45.91;100977.69;3571793;40;20075;-66
2021/08/04 08:10:33;;;;;;;10.15;8.27;;;;;;;19.01;45.60;100980.56;3567938;40;20046;-65
2021/08/04 08:13:00;;;;;;;8.27;6.88;;;;;;;19.15;44.81;100986.16;3571501;40;20135;-65
2021/08/04 08:15:28;;;;;;;8.30;6.22;;;;;;;19.29;44.91;100975.28;3580767;40;20049;-69
2021/08/04 08:17:57;;;;;;;10.65;7.50;;;;;;;19.42;44.73;100973.63;3585638;39;20041;-64
2021/08/04 08:20:27;;;;;;;10.13;8.02;;;;;;;19.57;44.59;100976.44;3582820;40;20048;-65
2021/08/04 08:22:54;;;;;;;10.88;7.82;;;;;;;19.68;44.05;100970.41;3586805;39;20041;-64
2021/08/04 08:25:22;;;;;;;9.48;7.18;;;;;;;19.79;44.39;100966.31;3577036;40;20033;-64
2021/08/04 08:27:51;;;;;;;12.60;7.38;;;;;;;19.90;43.86;100975.06;3580512;39;20125;-64
2021/08/04 08:30:19;;;;;;;11.30;7.28;;;;;;;20.04;43.86;100965.00;3577748;40;20052;-65
2021/08/04 08:32:49;;;;;;;8.48;6.97;;;;;;;20.16;43.76;100969.03;3576716;40;20397;-63
2021/08/04 08:35:18;;;;;;;9.82;7.07;;;;;;;20.31;43.48;100974.59;3577183;40;20033;-65
2021/08/04 08:37:49;;;;;;;9.15;6.95;;;;;;;20.45;43.66;100972.81;3578506;40;20466;-64
2021/08/04 08:40:18;;;;;;;8.02;7.00;;;;;;;20.54;42.86;100961.41;3584672;40;20064;-64
2021/08/04 08:42:46;;;;;;;9.88;7.25;;;;;;;20.65;43.00;100958.13;3580170;40;20364;-65
2021/08/04 08:45:14;;;;;;;9.50;7.15;;;;;;;20.74;41.99;100960.78;3584034;40;20051;-65
2021/08/04 08:47:45;;;;;;;8.60;6.53;;;;;;;20.82;41.94;100963.44;3577931;39;20084;-65
2021/08/04 08:50:21;;;;;;;8.73;6.88;;;;;;;20.86;41.38;100967.53;3580373;40;20032;-64
2021/08/04 08:52:50;;;;;;;8.25;6.20;;;;;;;20.88;40.94;100965.44;3586263;39;20041;-64
2021/08/04 08:55:18;;;;;;;8.38;6.78;;;;;;;20.91;41.36;100962.31;3586686;40;20121;-65
2021/08/04 08:57:46;;;;;;;10.10;6.43;;;;;;;20.95;41.29;100956.13;3586880;39;20051;-64
2021/08/04 09:00:16;;;;;;;9.43;6.95;;;;;;;21.02;41.26;100953.41;3587304;40;20469;-64
2021/08/04 09:02:44;;;;;;;7.82;6.45;;;;;;;21.08;41.18;100954.56;3582701;39;20134;-65
2021/08/04 09:05:15;;;;;;;8.75;5.90;;;;;;;21.13;41.00;100947.31;3578850;40;20051;-65
2021/08/04 09:07:44;;;;;;;8.60;6.05;;;;;;;21.19;40.68;100954.00;3586254;39;20056;-66
2021/08/04 09:10:36;;;;;;;8.15;6.25;;;;;;;21.24;39.97;100959.84;3586411;40;20029;-65
2021/08/04 09:13:06;;;;;;;8.45;5.13;;;;;;;21.30;40.67;100948.78;3575743;39;20095;-65
2021/08/04 09:15:37;;;;;;;7.20;5.78;;;;;;;21.36;40.34;100953.53;3576918;40;20041;-65
2021/08/04 09:18:07;;;;;;;8.98;6.05;;;;;;;21.43;39.92;100956.34;3577883;40;20032;-63
2021/08/04 09:20:45;;;;;;;8.98;6.80;;;;;;;21.48;38.69;100951.06;3580822;40;20543;-65
2021/08/04 09:23:15;;;;;;;7.25;5.07;;;;;;;21.49;39.65;100954.72;3574351;39;20049;-65
2021/08/04 09:26:03;;;;;;;8.55;5.60;;;;;;;21.53;38.28;100954.09;3576681;40;20033;-65
2021/08/04 09:28:50;;;;;;;7.22;5.18;;;;;;;21.55;39.69;100957.53;3585077;39;20412;-66
2021/08/04 09:31:18;;;;;;;6.13;4.65;;;;;;;21.61;39.40;100953.97;3586986;40;20029;-64
2021/08/04 09:33:48;;;;;;;7.53;5.05;;;;;;;21.67;39.14;100949.50;3576552;39;20084;-65
2021/08/04 09:36:26;;;;;;;7.25;5.60;;;;;;;21.76;39.00;100940.78;3576414;40;20389;-66
2021/08/04 09:39:02;;;;;;;6.72;4.97;;;;;;;21.84;39.05;100942.56;3576251;40;20412;-66
2021/08/04 09:41:31;;;;;;;7.47;4.60;;;;;;;21.90;39.73;100932.53;3576817;40;20044;-66
2021/08/04 09:44:06;;;;;;;5.30;3.58;;;;;;;22.01;39.02;100926.38;3582262;39;20053;-64
2021/08/04 09:46:34;;;;;;;5.55;3.58;;;;;;;22.08;39.65;100927.25;3577002;40;20036;-65
2021/08/04 09:49:12;;;;;;;7.30;3.85;;;;;;;22.22;39.12;100931.03;3576263;40;20053;-65
2021/08/04 09:51:40;;;;;;;5.80;4.28;;;;;;;22.30;39.40;100930.84;3577968;40;20415;-66
2021/08/04 09:54:09;;;;;;;6.97;4.53;;;;;;;22.41;38.39;100936.66;3577257;40;20053;-65
2021/08/04 09:56:52;;;;;;;5.90;4.35;;;;;;;22.52;36.71;100930.50;3583909;40;20033;-64
2021/08/04 09:59:21;;;;;;;5.35;4.10;;;;;;;22.58;38.13;100929.66;3579939;40;20319;-64
2021/08/04 10:01:50;;;;;;;7.20;5.15;;;;;;;22.68;37.55;100926.47;3577063;40;20045;-64
2021/08/04 10:04:19;;;;;;;5.10;3.40;;;;;;;22.74;37.85;100925.63;3577661;40;20061;-64
2021/08/04 10:06:47;;;;;;;5.38;3.95;;;;;;;22.81;38.11;100925.63;3578273;40;20327;-65
2021/08/04 10:09:18;;;;;;;5.05;3.65;;;;;;;22.90;37.60;100925.25;3576563;40;20412;-64
2021/08/04 10:11:47;;;;;;;5.32;3.15;;;;;;;22.98;37.71;100917.75;3577666;40;20396;-64
2021/08/04 10:14:18;;;;;;;4.80;3.50;;;;;;;23.04;36.52;100917.78;3576964;40;20049;-64
2021/08/04 10:16:48;;;;;;;5.32;3.80;;;;;;;23.09;36.51;100917.13;3578506;40;20040;-64
2021/08/04 10:19:18;;;;;;;5.85;3.22;;;;;;;23.10;36.57;100922.50;3578801;40;20041;-64
2021/08/04 10:21:49;;;;;;;4.22;3.28;;;;;;;23.11;36.32;100915.00;3585536;40;20033;-65
2021/08/04 10:24:18;;;;;;;5.28;3.50;;;;;;;23.09;36.42;100915.19;3576883;39;20328;-65
2021/08/04 10:26:46;;;;;;;5.38;3.60;;;;;;;23.08;35.85;100918.19;3582327;40;20382;-64
2021/08/04 10:29:21;;;;;;;5.78;3.90;;;;;;;23.08;34.65;100913.47;3582616;39;20644;-64
2021/08/04 10:31:49;;;;;;;5.13;3.63;;;;;;;23.01;35.47;100907.03;3578135;40;20091;-64
2021/08/04 10:34:25;;;;;;;5.25;3.45;;;;;;;22.97;35.04;100911.34;3577164;40;20052;-64
2021/08/04 10:36:56;;;;;;;5.47;3.75;;;;;;;22.92;35.16;100917.53;3578079;40;20405;-64
2021/08/04 10:39:26;;;;;;;5.37;3.47;;;;;;;22.85;35.16;100904.66;3577638;40;20052;-64
2021/08/04 10:42:02;;;;;;;4.63;3.60;;;;;;;22.83;34.96;100913.22;3578267;40;20606;-64
2021/08/04 10:44:31;;;;;;;4.93;3.17;;;;;;;22.77;35.18;100908.47;3577787;40;20056;-64
2021/08/04 10:47:04;;;;;;;4.35;2.95;;;;;;;22.70;35.21;100913.19;3585275;39;20091;-64
2021/08/04 10:49:35;;;;;;;4.57;3.38;;;;;;;22.68;35.25;100906.94;3579814;40;20429;-64
2021/08/04 10:52:05;;;;;;;3.97;2.78;;;;;;;22.66;35.50;100909.09;3583543;40;20033;-64
2021/08/04 10:54:33;;;;;;;5.13;3.78;;;;;;;22.59;35.31;100911.00;3593074;40;20176;-64
2021/08/04 10:57:11;;;;;;;4.88;3.20;;;;;;;22.58;34.79;100917.63;3585625;39;20413;-65
2021/08/04 10:59:42;;;;;;;5.07;3.42;;;;;;;22.51;35.14;100898.13;3577937;40;20339;-64
2021/08/04 11:02:40;;;;;;;6.68;3.70;;;;;;;22.41;35.29;100902.34;3580692;39;20727;-63
2021/08/04 11:05:08;;;;;;;4.97;3.25;;;;;;;22.39;35.53;100896.16;3587993;40;20048;-64
2021/08/04 11:07:36;;;;;;;4.63;3.20;;;;;;;22.37;35.48;100901.94;3587208;39;20045;-64
2021/08/04 11:10:06;;;;;;;4.38;3.40;;;;;;;22.35;35.35;100898.50;3586943;40;20108;-64
2021/08/04 11:12:48;;;;;;;4.80;3.05;;;;;;;22.34;35.03;100899.56;3579619;39;20048;-64
2021/08/04 11:15:25;;;;;;;4.82;3.53;;;;;;;22.29;34.85;100902.13;3578020;40;20095;-63
2021/08/04 11:18:02;;;;;;;5.38;3.78;;;;;;;22.27;35.09;100906.19;3580860;39;20048;-64
2021/08/04 11:20:31;;;;;;;4.50;2.92;;;;;;;22.23;35.09;100896.53;3579974;40;20044;-63
2021/08/04 11:22:59;;;;;;;5.63;3.10;;;;;;;22.21;35.50;100899.50;3577505;39;20064;-64
2021/08/04 11:25:41;;;;;;;5.45;3.55;;;;;;;22.21;35.06;100898.66;3579036;40;20110;-63
2021/08/04 11:28:19;;;;;;;4.63;3.30;;;;;;;22.16;34.93;100883.38;3587482;39;20045;-64
2021/08/04 11:30:54;;;;;;;4.43;3.08;;;;;;;22.16;34.57;100886.16;3580099;40;20044;-63
2021/08/04 11:33:31;;;;;;;5.70;3.70;;;;;;;22.15;34.92;100883.56;3577654;40;20120;-64
2021/08/04 11:36:06;;;;;;;4.07;3.08;;;;;;;22.11;35.31;100891.50;3577736;40;20041;-63
2021/08/04 11:38:50;;;;;;;4.75;3.25;;;;;;;22.09;34.75;100878.84;3584559;39;20060;-64